Time;durP1;ratioP1;P1;durP2;ratioP2;P2;SDS_P1;SDS_P2;PMS_P1;PMS_P2;Temp;Humidity;BMP_temperature;BMP_pressure;BME280_temperature;BME280_humidity;BME280_pressure;Samples;Min_cycle;Max_cycle;Signal;HPM_P1;HPM_P2
2022/05/10 00:00:21;;;;;;;4.63;2.00;;;;;20.60;101896.00;;;;5087004;28;20572;-77
2022/05/10 00:02:52;;;;;;;2.45;2.20;;;;;20.50;101896.00;;;;5081633;28;20709;-77
2022/05/10 00:05:23;;;;;;;2.90;1.95;;;;;20.50;101886.00;;;;5082241;28;20194;-77
2022/05/10 00:07:51;;;;;;;3.15;2.28;;;;;20.50;101883.00;;;;5086729;28;20575;-77
2022/05/10 00:10:18;;;;;;;3.47;2.28;;;;;20.40;101881.00;;;;5086508;28;20207;-76
2022/05/10 00:12:46;;;;;;;2.35;2.00;;;;;20.40;101875.00;;;;5075571;28;20198;-77
2022/05/10 00:15:13;;;;;;;2.55;2.03;;;;;20.40;101880.00;;;;5087176;28;20280;-77
2022/05/10 00:17:42;;;;;;;3.88;2.35;;;;;20.30;101885.00;;;;5087749;28;20201;-77
2022/05/10 00:20:16;;;;;;;2.35;2.15;;;;;20.30;101880.00;;;;5076799;28;20199;-77
2022/05/10 00:22:44;;;;;;;2.85;2.35;;;;;20.30;101876.00;;;;5085840;28;20283;-77
2022/05/10 00:25:16;;;;;;;3.80;2.80;;;;;20.20;101875.00;;;;5087957;28;20588;-77
2022/05/10 00:27:43;;;;;;;3.17;2.65;;;;;20.20;101869.00;;;;5076779;28;20873;-78
2022/05/10 00:30:12;;;;;;;3.80;2.75;;;;;20.10;101870.00;;;;5086777;28;20255;-78
2022/05/10 00:32:40;;;;;;;4.28;2.45;;;;;20.10;101865.00;;;;5079786;28;20549;-78
2022/05/10 00:35:16;;;;;;;4.93;2.28;;;;;20.00;101862.00;;;;5084629;28;20289;-77
2022/05/10 00:37:44;;;;;;;5.90;2.60;;;;;20.00;101860.00;;;;5080501;28;20201;-78
2022/05/10 00:40:12;;;;;;;3.22;2.33;;;;;20.00;101851.00;;;;5085549;28;20285;-78
2022/05/10 00:42:49;;;;;;;4.07;2.83;;;;;20.00;101850.00;;;;5085191;28;20218;-78
2022/05/10 00:45:20;;;;;;;3.35;2.55;;;;;19.90;101845.00;;;;5073456;28;20209;-78
2022/05/10 00:47:57;;;;;;;3.65;2.47;;;;;19.90;101841.00;;;;5082768;28;20221;-77
2022/05/10 00:50:32;;;;;;;4.18;2.75;;;;;19.80;101838.00;;;;5088710;28;20201;-77
2022/05/10 00:53:04;;;;;;;2.72;2.53;;;;;19.80;101832.00;;;;5073236;28;20871;-77
2022/05/10 00:55:39;;;;;;;3.65;2.25;;;;;19.80;101821.00;;;;5083317;28;20195;-77
2022/05/10 00:58:21;;;;;;;3.85;2.75;;;;;19.70;101821.00;;;;5076202;28;20652;-77
2022/05/10 01:00:49;;;;;;;4.95;3.40;;;;;19.80;101831.00;;;;5074114;28;20203;-77
2022/05/10 01:03:24;;;;;;;3.90;2.72;;;;;19.70;101825.00;;;;5083409;28;20230;-77
2022/05/10 01:05:59;;;;;;;6.95;3.38;;;;;19.70;101821.00;;;;5078676;28;20583;-77
2022/05/10 01:08:30;;;;;;;4.68;2.58;;;;;19.70;101823.00;;;;5073859;28;20206;-77
2022/05/10 01:11:04;;;;;;;4.32;3.03;;;;;19.60;101821.00;;;;5081765;28;20202;-77
2022/05/10 01:13:36;;;;;;;5.28;3.00;;;;;19.60;101820.00;;;;5079827;28;20194;-77
2022/05/10 01:16:08;;;;;;;3.75;3.20;;;;;19.60;101818.00;;;;5084954;28;20205;-77
2022/05/10 01:18:36;;;;;;;3.92;3.30;;;;;19.60;101823.00;;;;5080192;28;20191;-77
2022/05/10 01:21:18;;;;;;;4.00;3.55;;;;;19.50;101815.00;;;;5083989;28;20201;-77
2022/05/10 01:24:10;;;;;;;5.38;4.03;;;;;19.40;101808.00;;;;5087848;28;20236;-77
2022/05/10 01:26:52;;;;;;;3.78;3.25;;;;;19.40;101805.00;;;;5079079;28;20199;-77
2022/05/10 01:29:26;;;;;;;4.55;3.67;;;;;19.40;101801.00;;;;5085630;28;20202;-76
2022/05/10 01:34:40;;;;;;;5.93;3.95;;;;;19.50;101786.00;;;;5085997;28;20198;-77
2022/05/10 01:37:13;;;;;;;5.90;4.28;;;;;19.40;101780.00;;;;5085942;28;20201;-77
2022/05/10 01:39:50;;;;;;;4.45;3.70;;;;;19.40;101782.00;;;;5074246;28;20273;-77
2022/05/10 01:42:23;;;;;;;5.95;3.88;;;;;19.40;101782.00;;;;5086694;28;20194;-77
2022/05/10 01:44:55;;;;;;;5.18;3.75;;;;;19.40;101778.00;;;;5086859;28;20599;-77
2022/05/10 01:47:29;;;;;;;6.53;4.43;;;;;19.40;101782.00;;;;5084769;28;20275;-78
2022/05/10 01:50:04;;;;;;;5.85;4.85;;;;;19.30;101770.00;;;;5087749;28;20206;-77
2022/05/10 01:52:35;;;;;;;6.45;4.40;;;;;19.40;101764.00;;;;5088157;28;20220;-78
2022/05/10 01:55:13;;;;;;;5.68;4.72;;;;;19.40;101771.00;;;;5085065;28;20198;-77
2022/05/10 01:57:40;;;;;;;6.50;4.72;;;;;19.40;101769.00;;;;5084170;28;20205;-78
2022/05/10 02:00:16;;;;;;;5.95;4.72;;;;;19.30;101760.00;;;;5083507;28;20202;-78
2022/05/10 02:02:48;;;;;;;6.35;5.03;;;;;19.40;101763.00;;;;5074734;28;20698;-77
2022/05/10 02:05:23;;;;;;;8.25;5.07;;;;;19.40;101758.00;;;;5086331;28;20190;-77
2022/05/10 02:07:52;;;;;;;14.52;5.68;;;;;19.40;101754.00;;;;5087078;28;20691;-77
2022/05/10 02:10:26;;;;;;;7.00;5.53;;;;;19.40;101750.00;;;;5085624;28;20191;-77
2022/05/10 02:13:00;;;;;;;7.40;6.57;;;;;19.40;101753.00;;;;5084759;28;20668;-77
2022/05/10 02:15:35;;;;;;;7.80;5.78;;;;;19.40;101747.00;;;;5086426;28;20201;-77
2022/05/10 02:18:10;;;;;;;7.72;5.70;;;;;19.40;101746.00;;;;5085664;28;20209;-78
2022/05/10 02:20:45;;;;;;;7.40;5.90;;;;;19.40;101746.00;;;;5079223;28;20190;-78
2022/05/10 02:23:17;;;;;;;7.50;6.25;;;;;19.40;101748.00;;;;5068297;28;20230;-78
2022/05/10 02:25:48;;;;;;;7.63;5.88;;;;;19.40;101747.00;;;;5072413;28;20195;-77
2022/05/10 02:28:21;;;;;;;8.40;5.97;;;;;19.50;101745.00;;;;5079295;28;20201;-78
2022/05/10 02:30:53;;;;;;;8.57;5.63;;;;;19.40;101738.00;;;;5085523;28;20194;-77
2022/05/10 02:33:20;;;;;;;10.25;5.80;;;;;19.50;101739.00;;;;5081916;28;20191;-78
2022/05/10 02:35:50;;;;;;;9.38;6.22;;;;;19.50;101739.00;;;;5085810;28;20194;-78
2022/05/10 02:38:25;;;;;;;9.95;6.55;;;;;19.50;101741.00;;;;5087497;28;20734;-78
2022/05/10 02:40:56;;;;;;;7.95;5.78;;;;;19.50;101731.00;;;;5086553;28;20232;-78
2022/05/10 02:43:27;;;;;;;7.53;5.60;;;;;19.50;101732.00;;;;5080313;28;20226;-78
2022/05/10 02:45:57;;;;;;;7.82;6.13;;;;;19.50;101729.00;;;;5085879;28;20202;-77
2022/05/10 02:48:28;;;;;;;7.68;6.03;;;;;19.60;101736.00;;;;5090174;28;20233;-78
2022/05/10 02:50:56;;;;;;;10.18;6.22;;;;;19.60;101727.00;;;;5090290;28;20194;-78
2022/05/10 02:53:24;;;;;;;9.43;6.68;;;;;19.60;101725.00;;;;5089297;28;20201;-78
2022/05/10 02:55:54;;;;;;;11.05;7.03;;;;;19.60;101726.00;;;;5081009;28;20207;-77
2022/05/10 02:58:29;;;;;;;9.00;7.25;;;;;19.60;101723.00;;;;5077693;28;20199;-78
2022/05/10 03:01:05;;;;;;;9.40;6.93;;;;;19.60;101724.00;;;;5080799;28;20213;-78
2022/05/10 03:03:33;;;;;;;7.93;5.80;;;;;19.60;101717.00;;;;5079549;28;20287;-77
2022/05/10 03:06:01;;;;;;;12.00;7.50;;;;;19.70;101710.00;;;;5085393;28;20194;-77
2022/05/10 03:08:28;;;;;;;9.80;7.30;;;;;19.70;101702.00;;;;5088096;28;20199;-77
2022/05/10 03:10:56;;;;;;;12.57;7.38;;;;;19.70;101699.00;;;;5089736;28;20195;-78
2022/05/10 03:13:23;;;;;;;10.70;7.78;;;;;19.70;101695.00;;;;5088777;28;20194;-78
2022/05/10 03:15:50;;;;;;;8.57;7.30;;;;;19.70;101696.00;;;;5086114;28;20568;-78
2022/05/10 03:18:19;;;;;;;12.15;7.43;;;;;19.70;101686.00;;;;5091667;28;20197;-78
2022/05/10 03:20:46;;;;;;;12.55;7.20;;;;;19.70;101683.00;;;;5082040;28;20203;-78
2022/05/10 03:23:13;;;;;;;11.02;8.13;;;;;19.70;101688.00;;;;5088847;28;20699;-78
2022/05/10 03:25:40;;;;;;;9.73;7.15;;;;;19.80;101677.00;;;;5086895;28;20195;-77
2022/05/10 03:28:08;;;;;;;9.23;6.97;;;;;19.80;101677.00;;;;5081635;28;20217;-77
2022/05/10 03:30:35;;;;;;;10.20;7.80;;;;;19.80;101676.00;;;;5080735;28;20260;-77
2022/05/10 03:33:03;;;;;;;11.60;8.00;;;;;19.80;101668.00;;;;5083355;28;20277;-77
2022/05/10 03:35:32;;;;;;;10.70;7.95;;;;;19.80;101671.00;;;;5079196;28;20248;-78
2022/05/10 03:37:59;;;;;;;10.88;7.90;;;;;19.80;101671.00;;;;5083963;28;20198;-77
2022/05/10 03:40:26;;;;;;;11.15;8.75;;;;;19.80;101668.00;;;;5084650;28;20218;-78
2022/05/10 03:42:54;;;;;;;16.13;8.88;;;;;19.80;101667.00;;;;5072268;28;20198;-77
2022/05/10 03:45:23;;;;;;;9.68;7.75;;;;;19.80;101666.00;;;;5088580;28;20199;-78
2022/05/10 03:47:51;;;;;;;11.32;8.38;;;;;19.90;101671.00;;;;5088568;28;20248;-77
2022/05/10 03:50:20;;;;;;;12.10;7.93;;;;;19.90;101663.00;;;;5088595;28;20191;-77
2022/05/10 03:52:49;;;;;;;10.52;7.90;;;;;19.90;101665.00;;;;5089700;28;20202;-78
2022/05/10 03:55:20;;;;;;;12.93;8.52;;;;;19.90;101663.00;;;;5088822;28;20213;-78
2022/05/10 03:57:47;;;;;;;11.57;8.68;;;;;19.90;101664.00;;;;5087638;28;20206;-78
2022/05/10 04:00:18;;;;;;;11.25;7.97;;;;;19.90;101659.00;;;;5089363;28;20195;-78
2022/05/10 04:02:46;;;;;;;9.82;7.57;;;;;19.90;101665.00;;;;5082707;28;20548;-78
2022/05/10 04:05:14;;;;;;;10.48;8.82;;;;;20.00;101659.00;;;;5086264;28;20224;-78
2022/05/10 04:07:42;;;;;;;10.20;7.70;;;;;20.00;101654.00;;;;5089235;28;20201;-78
2022/05/10 04:10:12;;;;;;;11.55;8.73;;;;;20.00;101661.00;;;;5087986;28;20195;-78
2022/05/10 04:12:40;;;;;;;9.60;8.02;;;;;20.00;101658.00;;;;5074078;28;20276;-78
2022/05/10 04:15:10;;;;;;;12.40;8.48;;;;;20.00;101658.00;;;;5080217;28;20206;-78
2022/05/10 04:17:37;;;;;;;13.02;8.02;;;;;20.10;101658.00;;;;5086243;28;20198;-78
2022/05/10 04:20:06;;;;;;;13.88;8.65;;;;;20.10;101656.00;;;;5086773;28;20195;-78
2022/05/10 04:22:36;;;;;;;11.32;8.32;;;;;20.10;101656.00;;;;5083881;28;20190;-78
2022/05/10 04:25:04;;;;;;;11.40;8.50;;;;;20.10;101658.00;;;;5071063;28;20747;-78
2022/05/10 04:27:32;;;;;;;11.40;7.93;;;;;20.10;101650.00;;;;5088168;28;20198;-78
2022/05/10 04:29:59;;;;;;;12.52;9.48;;;;;20.10;101650.00;;;;5085528;28;20374;-78
2022/05/10 04:32:27;;;;;;;13.45;9.20;;;;;20.10;101649.00;;;;5081328;28;20193;-78
2022/05/10 04:34:54;;;;;;;11.57;8.68;;;;;20.20;101651.00;;;;5082778;28;20198;-78
2022/05/10 04:37:21;;;;;;;11.98;8.18;;;;;20.20;101648.00;;;;5086244;28;20198;-78
2022/05/10 04:42:35;;;;;;;12.25;8.68;;;;;20.20;101646.00;;;;5088347;28;20213;-78
2022/05/10 04:45:02;;;;;;;10.60;8.20;;;;;20.20;101647.00;;;;5082404;28;20218;-78
2022/05/10 04:47:29;;;;;;;12.18;8.57;;;;;20.20;101655.00;;;;5087268;28;20218;-78
2022/05/10 04:49:57;;;;;;;11.80;8.27;;;;;20.20;101641.00;;;;5072982;28;20198;-78
2022/05/10 04:52:24;;;;;;;11.07;7.43;;;;;20.30;101639.00;;;;5085844;28;20566;-78
2022/05/10 04:54:51;;;;;;;13.88;8.52;;;;;20.30;101643.00;;;;5086219;28;20198;-78
2022/05/10 04:57:18;;;;;;;12.20;8.80;;;;;20.30;101646.00;;;;5087415;28;20687;-78
2022/05/10 04:59:48;;;;;;;11.60;8.25;;;;;20.30;101640.00;;;;5085932;28;20198;-78
2022/05/10 05:02:15;;;;;;;9.75;8.63;;;;;20.40;101638.00;;;;5084988;28;20198;-78
2022/05/10 05:04:42;;;;;;;13.07;9.13;;;;;20.40;101639.00;;;;5085990;28;20229;-78
2022/05/10 05:07:10;;;;;;;11.63;8.75;;;;;20.40;101633.00;;;;5080446;28;20251;-77
2022/05/10 05:09:37;;;;;;;10.95;8.98;;;;;20.50;101638.00;;;;5081147;28;20213;-76
2022/05/10 05:12:05;;;;;;;12.00;8.32;;;;;20.50;101639.00;;;;5084732;28;20193;-80
2022/05/10 05:14:33;;;;;;;11.50;8.15;;;;;20.50;101628.00;;;;5080425;28;20199;-80
2022/05/10 05:17:01;;;;;;;13.13;9.07;;;;;20.60;101635.00;;;;5080661;28;20202;-80
2022/05/10 05:19:29;;;;;;;11.38;7.65;;;;;20.60;101628.00;;;;5085233;28;20240;-80
2022/05/10 05:21:56;;;;;;;10.88;8.70;;;;;20.60;101634.00;;;;5089371;28;20651;-80
2022/05/10 05:24:23;;;;;;;12.52;8.85;;;;;20.70;101632.00;;;;5089244;28;20226;-80
2022/05/10 05:26:52;;;;;;;11.80;8.18;;;;;20.70;101639.00;;;;5083986;28;20201;-80
2022/05/10 05:29:20;;;;;;;10.68;8.55;;;;;20.70;101639.00;;;;5086451;28;20222;-79
2022/05/10 05:31:48;;;;;;;13.43;8.90;;;;;20.80;101633.00;;;;5085344;28;21529;-79
2022/05/10 05:34:17;;;;;;;13.18;8.95;;;;;20.80;101629.00;;;;5079495;28;20256;-79
2022/05/10 05:37:32;;;;;;;12.45;8.82;;;;;20.90;101632.00;;;;5085593;28;20202;-80
2022/05/10 05:39:31;;;;;;;9.30;7.57;;;;;20.90;101624.00;;;;5072585;28;20241;-79
2022/05/10 05:41:59;;;;;;;10.75;8.27;;;;;21.00;101627.00;;;;5076268;28;20194;-80
2022/05/10 05:44:26;;;;;;;11.35;8.65;;;;;21.00;101622.00;;;;5079473;28;20227;-81
2022/05/10 05:46:53;;;;;;;14.45;8.30;;;;;21.00;101618.00;;;;5084131;28;20201;-80
2022/05/10 05:49:22;;;;;;;11.38;8.07;;;;;21.10;101617.00;;;;5084562;28;20214;-80
2022/05/10 05:51:49;;;;;;;11.32;8.20;;;;;21.20;101626.00;;;;5087714;28;20198;-81
2022/05/10 05:54:16;;;;;;;11.95;7.93;;;;;21.20;101624.00;;;;5087944;28;20210;-79
2022/05/10 05:56:43;;;;;;;11.48;8.38;;;;;21.30;101628.00;;;;5084838;28;20217;-79
2022/05/10 05:59:10;;;;;;;10.13;8.63;;;;;21.30;101623.00;;;;5078569;28;20198;-77
2022/05/10 06:01:38;;;;;;;12.25;7.97;;;;;21.30;101622.00;;;;5083032;28;20206;-79
2022/05/10 06:04:05;;;;;;;10.32;8.35;;;;;21.40;101621.00;;;;5088202;28;20472;-79
2022/05/10 06:06:34;;;;;;;13.88;8.43;;;;;21.40;101619.00;;;;5087970;28;20652;-79
2022/05/10 06:09:01;;;;;;;9.40;7.18;;;;;21.50;101616.00;;;;5088298;28;20202;-79
2022/05/10 06:11:28;;;;;;;12.93;7.90;;;;;21.60;101612.00;;;;5087295;28;20210;-77
2022/05/10 06:13:55;;;;;;;10.63;7.32;;;;;21.60;101613.00;;;;5087932;28;20228;-78
2022/05/10 06:16:22;;;;;;;10.55;8.02;;;;;21.70;101609.00;;;;5088019;28;20213;-77
2022/05/10 06:18:50;;;;;;;10.60;7.10;;;;;21.80;101616.00;;;;5087662;28;20205;-77
2022/05/10 06:21:17;;;;;;;8.65;7.43;;;;;21.80;101615.00;;;;5087638;28;20622;-77
2022/05/10 06:23:45;;;;;;;9.98;7.25;;;;;21.90;101621.00;;;;5090867;28;20234;-77
2022/05/10 06:26:13;;;;;;;9.85;6.95;;;;;22.00;101613.00;;;;5091438;28;20255;-77
2022/05/10 06:28:40;;;;;;;8.65;6.80;;;;;22.10;101613.00;;;;5091461;28;20228;-77
2022/05/10 06:31:08;;;;;;;13.18;6.88;;;;;22.20;101612.00;;;;5091929;28;20377;-78
2022/05/10 06:33:35;;;;;;;11.15;6.47;;;;;22.30;101604.00;;;;5091515;28;20206;-78
2022/05/10 06:36:03;;;;;;;8.70;6.32;;;;;22.50;101603.00;;;;5088413;28;20201;-78
2022/05/10 06:38:30;;;;;;;12.43;7.65;;;;;22.60;101601.00;;;;5091577;28;20220;-78
2022/05/10 06:41:01;;;;;;;13.40;6.70;;;;;22.70;101594.00;;;;5091539;28;20299;-78
2022/05/10 06:43:29;;;;;;;9.23;6.72;;;;;22.80;101594.00;;;;5091326;28;20202;-78
2022/05/10 06:45:57;;;;;;;10.02;6.07;;;;;22.90;101588.00;;;;5091344;28;20665;-78
2022/05/10 06:48:24;;;;;;;10.27;6.70;;;;;23.00;101596.00;;;;5090875;28;20241;-78
2022/05/10 06:50:52;;;;;;;10.05;6.40;;;;;23.10;101582.00;;;;5091433;28;20190;-78
2022/05/10 06:53:19;;;;;;;10.20;6.95;;;;;23.20;101577.00;;;;5091059;28;20225;-78
2022/05/10 06:55:46;;;;;;;8.02;5.85;;;;;23.20;101579.00;;;;5091420;28;20215;-78
2022/05/10 06:58:15;;;;;;;7.70;6.30;;;;;23.30;101579.00;;;;5090086;28;20201;-78
2022/05/10 07:00:42;;;;;;;9.80;6.45;;;;;23.40;101569.00;;;;5084979;28;20622;-78
2022/05/10 07:03:11;;;;;;;13.20;7.20;;;;;23.50;101572.00;;;;5091400;28;20213;-78
2022/05/10 07:05:40;;;;;;;9.18;6.10;;;;;23.60;101565.00;;;;5079044;28;20238;-79
2022/05/10 07:08:08;;;;;;;9.00;6.45;;;;;23.70;101563.00;;;;5086654;28;20220;-78
2022/05/10 07:10:35;;;;;;;9.40;6.03;;;;;23.70;101561.00;;;;5090085;28;20236;-79
2022/05/10 07:13:03;;;;;;;7.38;6.60;;;;;23.80;101561.00;;;;5094330;28;20620;-79
2022/05/10 07:15:31;;;;;;;9.15;6.00;;;;;23.90;101556.00;;;;5090620;28;20209;-78
2022/05/10 07:17:59;;;;;;;11.13;7.32;;;;;24.00;101558.00;;;;5090766;28;20210;-79
2022/05/10 07:20:26;;;;;;;7.32;6.05;;;;;24.00;101565.00;;;;5090900;28;20210;-79
2022/05/10 07:22:53;;;;;;;10.60;7.43;;;;;24.10;101558.00;;;;5090434;28;20202;-79
2022/05/10 07:25:24;;;;;;;9.80;6.57;;;;;24.10;101558.00;;;;5089809;28;20246;-79
2022/05/10 07:27:51;;;;;;;7.55;6.57;;;;;24.20;101557.00;;;;5090777;28;20198;-79
2022/05/10 07:30:20;;;;;;;8.30;6.45;;;;;24.30;101563.00;;;;5090749;28;20289;-79
2022/05/10 07:32:49;;;;;;;7.15;6.30;;;;;24.30;101550.00;;;;5073932;28;20206;-79
2022/05/10 07:35:17;;;;;;;8.48;6.22;;;;;24.40;101554.00;;;;5069419;28;20206;-79
2022/05/10 07:37:44;;;;;;;7.68;5.30;;;;;24.40;101545.00;;;;5070056;28;20191;-79
2022/05/10 07:40:13;;;;;;;8.45;5.78;;;;;24.50;101549.00;;;;5082871;28;20230;-78
2022/05/10 07:42:42;;;;;;;9.32;5.65;;;;;24.60;101546.00;;;;5087297;28;20602;-79
2022/05/10 07:45:11;;;;;;;5.90;5.30;;;;;24.60;101537.00;;;;5089056;28;20225;-77
2022/05/10 07:47:43;;;;;;;6.00;5.40;;;;;24.70;101548.00;;;;5078579;28;20889;-79
2022/05/10 07:50:12;;;;;;;7.00;5.57;;;;;24.70;101549.00;;;;5086063;28;20687;-79
2022/05/10 07:52:40;;;;;;;7.95;6.00;;;;;24.80;101546.00;;;;5087523;28;20202;-77
2022/05/10 07:55:09;;;;;;;10.25;5.90;;;;;24.90;101544.00;;;;5089263;28;20198;-77
2022/05/10 07:57:36;;;;;;;6.22;5.63;;;;;24.90;101544.00;;;;5089881;28;20191;-77
2022/05/10 08:00:04;;;;;;;6.25;5.25;;;;;25.00;101537.00;;;;5086924;28;20202;-79
2022/05/10 08:02:32;;;;;;;7.80;6.28;;;;;25.00;101537.00;;;;5088109;28;20699;-79
2022/05/10 08:04:59;;;;;;;7.43;5.07;;;;;25.10;101541.00;;;;5081859;28;20226;-79
2022/05/10 08:07:27;;;;;;;7.45;5.80;;;;;25.10;101538.00;;;;5089580;28;20216;-80
2022/05/10 08:09:55;;;;;;;6.43;5.68;;;;;25.20;101531.00;;;;5089493;28;20206;-79
2022/05/10 08:12:22;;;;;;;7.78;6.03;;;;;25.30;101532.00;;;;5088851;28;20293;-79
2022/05/10 08:14:49;;;;;;;7.35;6.30;;;;;25.30;101528.00;;;;5088849;28;20194;-79
2022/05/10 08:17:17;;;;;;;6.47;5.32;;;;;25.40;101534.00;;;;5088992;28;20576;-80
2022/05/10 08:19:45;;;;;;;7.57;5.72;;;;;25.50;101528.00;;;;5072691;28;20202;-79
2022/05/10 08:22:12;;;;;;;6.93;5.40;;;;;25.60;101524.00;;;;5069015;28;20297;-79
2022/05/10 08:24:41;;;;;;;7.53;5.75;;;;;25.70;101528.00;;;;5082808;28;20222;-80
2022/05/10 08:27:08;;;;;;;8.95;6.07;;;;;25.80;101526.00;;;;5087380;28;20202;-78
2022/05/10 08:29:35;;;;;;;9.82;5.80;;;;;25.90;101533.00;;;;5088152;28;20247;-78
2022/05/10 08:32:03;;;;;;;4.82;4.40;;;;;26.00;101524.00;;;;5088821;28;20233;-78
2022/05/10 08:34:32;;;;;;;7.35;5.70;;;;;26.10;101526.00;;;;5087190;28;20267;-78
2022/05/10 08:37:01;;;;;;;6.22;5.20;;;;;26.20;101521.00;;;;5087238;28;20222;-78
2022/05/10 08:39:29;;;;;;;5.97;4.53;;;;;26.40;101529.00;;;;5088378;28;20271;-79
2022/05/10 08:42:01;;;;;;;5.85;4.82;;;;;26.40;101520.00;;;;5089468;28;20205;-78
2022/05/10 08:44:31;;;;;;;5.03;4.53;;;;;26.60;101510.00;;;;5087885;28;20237;-79
2022/05/10 08:47:01;;;;;;;5.82;5.18;;;;;26.70;101504.00;;;;5088962;28;20281;-79
2022/05/10 08:49:36;;;;;;;5.53;4.75;;;;;26.70;101516.00;;;;5089196;28;20189;-80
2022/05/10 08:52:05;;;;;;;7.90;5.22;;;;;26.90;101505.00;;;;5089527;28;20209;-80
2022/05/10 08:54:33;;;;;;;5.72;4.70;;;;;27.00;101518.00;;;;5085441;28;21048;-80
2022/05/10 08:57:06;;;;;;;7.32;5.38;;;;;27.10;101514.00;;;;5084435;28;20199;-80
2022/05/10 08:59:39;;;;;;;4.90;3.45;;;;;27.20;101514.00;;;;5088549;28;20206;-80
2022/05/10 09:02:12;;;;;;;4.38;3.97;;;;;27.30;101509.00;;;;5087208;28;20247;-80
2022/05/10 09:04:49;;;;;;;4.75;4.25;;;;;27.40;101502.00;;;;5088289;28;20737;-80
2022/05/10 09:07:29;;;;;;;7.05;4.25;;;;;27.60;101498.00;;;;5087472;28;20194;-80
2022/05/10 09:10:04;;;;;;;6.22;3.80;;;;;27.80;101500.00;;;;5088564;28;20198;-79
2022/05/10 09:12:40;;;;;;;5.60;4.00;;;;;28.00;101498.00;;;;5086898;28;20201;-80
2022/05/10 09:15:10;;;;;;;4.30;3.47;;;;;28.20;101494.00;;;;5089168;28;20209;-80
2022/05/10 09:17:38;;;;;;;4.65;4.03;;;;;28.40;101484.00;;;;5088805;28;20943;-80
2022/05/10 09:20:07;;;;;;;6.00;4.47;;;;;28.50;101484.00;;;;5088820;28;20206;-80
2022/05/10 09:22:52;;;;;;;7.50;4.43;;;;;28.50;101496.00;;;;5088112;28;20202;-78
2022/05/10 09:25:31;;;;;;;7.45;4.57;;;;;28.60;101498.00;;;;5079906;28;20222;-80
2022/05/10 09:28:00;;;;;;;6.32;4.35;;;;;28.60;101494.00;;;;5068275;28;20692;-80
2022/05/10 09:30:31;;;;;;;7.38;4.55;;;;;28.70;101484.00;;;;5077514;28;20570;-79
2022/05/10 09:36:11;;;;;;;4.68;3.42;;;;;28.80;101476.00;;;;5045077;28;20277;-80
2022/05/10 09:38:46;;;;;;;4.35;3.33;;;;;28.90;101487.00;;;;5067616;28;20207;-80
2022/05/10 09:41:31;;;;;;;4.57;3.28;;;;;29.00;101491.00;;;;5074776;28;20680;-79
2022/05/10 09:44:20;;;;;;;4.25;3.83;;;;;29.00;101491.00;;;;5088461;28;20292;-80
2022/05/10 09:46:47;;;;;;;4.55;3.35;;;;;29.20;101498.00;;;;5084914;28;20255;-79
2022/05/10 09:49:31;;;;;;;4.72;3.20;;;;;29.10;101494.00;;;;5087964;28;20704;-80
2022/05/10 09:52:00;;;;;;;7.75;3.05;;;;;29.20;101492.00;;;;5087561;28;20631;-79
2022/05/10 09:54:34;;;;;;;8.18;3.13;;;;;29.20;101486.00;;;;5080539;28;20194;-79
2022/05/10 09:57:05;;;;;;;6.25;3.17;;;;;29.40;101500.00;;;;5070259;28;20222;-81
2022/05/10 09:59:45;;;;;;;8.38;3.30;;;;;29.40;101495.00;;;;5084729;28;20202;-79
2022/05/10 10:02:25;;;;;;;10.10;3.55;;;;;29.60;101485.00;;;;5072546;28;20343;-79
2022/05/10 10:04:52;;;;;;;3.78;3.30;;;;;29.70;101501.00;;;;5071741;28;20198;-80
2022/05/10 10:07:22;;;;;;;4.25;3.38;;;;;29.70;101488.00;;;;5072386;28;20199;-78
2022/05/10 10:09:51;;;;;;;4.97;3.50;;;;;29.70;101491.00;;;;5072379;28;21032;-80
2022/05/10 10:12:31;;;;;;;3.83;3.10;;;;;29.80;101487.00;;;;5072820;28;20826;-79
2022/05/10 10:15:02;;;;;;;3.80;3.40;;;;;29.90;101496.00;;;;5072875;28;20213;-81
2022/05/10 10:17:33;;;;;;;3.28;2.75;;;;;29.90;101493.00;;;;5092251;28;20202;-80
2022/05/10 10:20:06;;;;;;;7.95;3.72;;;;;29.90;101488.00;;;;5091997;28;20201;-80
2022/05/10 10:22:40;;;;;;;4.45;3.80;;;;;30.00;101489.00;;;;5091116;28;20559;-79
2022/05/10 10:25:15;;;;;;;3.22;2.92;;;;;30.00;101486.00;;;;5090606;28;20201;-80
2022/05/10 10:27:48;;;;;;;5.13;3.67;;;;;30.10;101475.00;;;;5091587;28;20209;-79
2022/05/10 10:30:23;;;;;;;5.55;2.85;;;;;30.10;101475.00;;;;5087067;28;20280;-80
2022/05/10 10:32:55;;;;;;;9.35;3.75;;;;;30.20;101478.00;;;;5078928;28;20228;-79
2022/05/10 10:35:32;;;;;;;4.63;3.72;;;;;30.20;101486.00;;;;5082691;28;20208;-80
2022/05/10 10:38:06;;;;;;;5.00;3.80;;;;;30.30;101484.00;;;;5071619;28;20199;-79
2022/05/10 10:40:39;;;;;;;5.80;3.63;;;;;30.30;101493.00;;;;5070776;28;20311;-80
2022/05/10 10:43:14;;;;;;;6.63;3.30;;;;;30.20;101485.00;;;;5088105;28;20192;-80
2022/05/10 10:45:46;;;;;;;4.68;3.25;;;;;30.20;101479.00;;;;5090974;28;20224;-79
2022/05/10 10:48:27;;;;;;;4.55;3.72;;;;;30.20;101475.00;;;;5091071;28;20605;-80
2022/05/10 10:50:55;;;;;;;5.03;2.88;;;;;30.30;101475.00;;;;5094328;28;20201;-80
2022/05/10 10:53:24;;;;;;;4.53;2.65;;;;;30.30;101473.00;;;;5096477;28;20229;-79
2022/05/10 10:56:21;;;;;;;3.35;2.80;;;;;30.10;101467.00;;;;5092296;28;20217;-79
2022/05/10 10:59:31;;;;;;;3.25;2.28;;;;;30.10;101458.00;;;;5073283;28;20207;-79
2022/05/10 11:02:42;;;;;;;3.88;2.88;;;;;30.10;101464.00;;;;5094793;28;20408;-80
2022/05/10 11:05:25;;;;;;;4.22;2.92;;;;;30.10;101458.00;;;;5058647;28;20209;-80
2022/05/10 11:08:00;;;;;;;4.05;1.98;;;;;30.20;101462.00;;;;5087115;28;20603;-79
2022/05/10 11:10:39;;;;;;;4.40;2.95;;;;;30.20;101463.00;;;;5094771;28;20288;-79
2022/05/10 11:13:19;;;;;;;4.32;2.38;;;;;30.30;101458.00;;;;5093007;28;20659;-79
2022/05/10 11:15:54;;;;;;;4.75;2.05;;;;;30.40;101458.00;;;;5091095;28;20202;-80
2022/05/10 11:18:32;;;;;;;6.47;2.63;;;;;30.50;101473.00;;;;5090422;28;20190;-80
2022/05/10 11:21:12;;;;;;;2.70;2.30;;;;;30.50;101463.00;;;;5091320;28;20194;-80
2022/05/10 11:23:51;;;;;;;5.13;2.25;;;;;30.50;101457.00;;;;5090064;28;20205;-79
2022/05/10 11:26:28;;;;;;;3.00;2.65;;;;;30.50;101454.00;;;;5074365;28;20635;-79
2022/05/10 11:29:10;;;;;;;3.65;2.15;;;;;30.50;101458.00;;;;5070737;28;20202;-80
2022/05/10 11:31:44;;;;;;;2.67;2.10;;;;;30.50;101450.00;;;;5085878;28;20251;-80
2022/05/10 11:34:41;;;;;;;3.45;2.15;;;;;30.40;101440.00;;;;5091422;28;20202;-80
2022/05/10 11:37:14;;;;;;;4.30;2.50;;;;;30.50;101445.00;;;;5084612;28;20197;-80
2022/05/10 11:40:15;;;;;;;3.28;2.78;;;;;30.40;101444.00;;;;5080854;28;20638;-80
2022/05/10 11:42:57;;;;;;;2.88;2.40;;;;;30.40;101442.00;;;;5070199;28;20195;-80
2022/05/10 11:45:59;;;;;;;3.50;2.67;;;;;30.30;101443.00;;;;5070808;28;20206;-79
2022/05/10 11:48:41;;;;;;;16.10;2.70;;;;;30.40;101435.00;;;;5072262;28;20703;-80
2022/05/10 11:51:42;;;;;;;5.95;2.63;;;;;30.30;101441.00;;;;5090631;28;20663;-79
2022/05/10 11:54:51;;;;;;;3.35;2.40;;;;;30.30;101440.00;;;;5090362;28;20190;-79
2022/05/10 11:57:21;;;;;;;7.22;2.47;;;;;30.40;101445.00;;;;5073279;28;20199;-79
2022/05/10 11:59:49;;;;;;;2.63;2.17;;;;;30.40;101442.00;;;;5087813;28;20198;-79
2022/05/10 12:02:47;;;;;;;2.80;2.47;;;;;30.30;101445.00;;;;5069598;28;20203;-80
2022/05/10 12:05:24;;;;;;;6.38;2.50;;;;;30.20;101440.00;;;;5069750;28;20666;-80
2022/05/10 12:07:53;;;;;;;5.43;2.15;;;;;30.30;101433.00;;;;5076974;28;20198;-79
2022/05/10 12:10:40;;;;;;;3.83;2.55;;;;;30.20;101432.00;;;;5089455;28;20190;-79
2022/05/10 12:22:06;;;;;;;3.35;3.00;;;;;30.30;101425.00;;;;5089189;28;20217;-80
2022/05/10 12:24:37;;;;;;;5.20;3.08;;;;;30.30;101438.00;;;;5078259;28;20190;-81
2022/05/10 12:27:36;;;;;;;4.75;3.15;;;;;30.20;101417.00;;;;5089427;28;20226;-80
2022/05/10 12:30:12;;;;;;;3.40;2.88;;;;;30.30;101426.00;;;;5088881;28;20198;-81
2022/05/10 12:32:45;;;;;;;3.90;2.58;;;;;30.30;101405.00;;;;5089321;28;20221;-79
2022/05/10 12:35:21;;;;;;;4.35;3.42;;;;;30.50;101403.00;;;;5089817;28;20213;-80
2022/05/10 12:37:59;;;;;;;7.82;3.35;;;;;30.50;101403.00;;;;5089469;28;20233;-80
2022/05/10 12:40:52;;;;;;;4.90;3.17;;;;;30.60;101398.00;;;;5081843;28;20662;-80
2022/05/10 12:44:10;;;;;;;4.50;3.40;;;;;30.50;101395.00;;;;5075895;28;20290;-80
2022/05/10 12:46:52;;;;;;;3.42;3.13;;;;;30.70;101396.00;;;;5088503;28;20233;-79